createdAt,value
2022-11-09T00:01:05.357Z,100932.22
2022-11-09T00:03:32.568Z,100942.81
2022-11-09T00:06:00.924Z,100916.38
2022-11-09T00:08:29.196Z,100939.16
2022-11-09T00:11:02.866Z,100918.94
2022-11-09T00:13:30.161Z,100937.47
2022-11-09T00:16:01.348Z,100919.06
2022-11-09T00:18:29.391Z,100940.22
2022-11-09T00:20:56.863Z,100940.22
2022-11-09T00:23:24.160Z,100929.63
2022-11-09T00:25:51.432Z,100941.91
2022-11-09T00:28:18.606Z,100927.88
2022-11-09T00:30:47.576Z,100930.53
2022-11-09T00:33:15.942Z,100927.00
2022-11-09T00:35:43.771Z,100926.16
2022-11-09T00:38:11.176Z,100941.91
2022-11-09T00:40:38.892Z,100926.97
2022-11-09T00:43:06.189Z,100935.72
2022-11-09T00:45:33.778Z,100933.94
2022-11-09T00:48:00.924Z,100930.44
2022-11-09T00:50:28.419Z,100926.03
2022-11-09T00:52:55.656Z,100935.66
2022-11-09T00:55:24.155Z,100937.38
2022-11-09T00:57:53.483Z,100930.41
2022-11-09T01:00:24.747Z,100931.19
2022-11-09T01:02:53.708Z,100935.59
2022-11-09T01:05:20.800Z,100931.19
2022-11-09T01:07:49.639Z,100925.97
2022-11-09T01:10:17.588Z,100919.91
2022-11-09T01:12:46.975Z,100919.91
2022-11-09T01:15:15.431Z,100922.59
2022-11-09T01:17:42.677Z,100920.81
2022-11-09T01:20:10.550Z,100913.88
2022-11-09T01:22:37.976Z,100916.50
2022-11-09T01:25:05.828Z,100925.31
2022-11-09T01:27:33.442Z,100905.09
2022-11-09T01:30:01.052Z,100924.44
2022-11-09T01:32:31.623Z,100917.50
2022-11-09T01:34:58.808Z,100921.00
2022-11-09T01:37:26.302Z,100909.63
2022-11-09T01:39:53.531Z,100921.91
2022-11-09T01:42:25.321Z,100920.19
2022-11-09T01:45:27.377Z,100925.50
2022-11-09T01:48:03.683Z,100912.28
2022-11-09T01:50:46.622Z,100907.06
2022-11-09T01:53:19.596Z,100920.28
2022-11-09T01:55:50.276Z,100921.16
2022-11-09T01:58:31.056Z,100917.66
2022-11-09T02:01:01.289Z,100917.66
2022-11-09T02:03:36.192Z,100920.34
2022-11-09T02:06:07.011Z,100897.47
2022-11-09T02:08:35.148Z,100915.06
2022-11-09T02:11:10.453Z,100918.59
2022-11-09T02:13:42.057Z,100912.44
2022-11-09T02:16:12.335Z,100907.22
2022-11-09T02:18:51.042Z,100887.78
2022-11-09T02:21:18.947Z,100928.25
2022-11-09T02:23:48.024Z,100933.50
2022-11-09T02:26:22.834Z,100935.25
2022-11-09T02:28:51.938Z,100922.94
2022-11-09T02:31:19.656Z,100951.97
2022-11-09T02:34:02.449Z,100952.66
2022-11-09T02:36:30.011Z,100957.22
2022-11-09T02:38:57.969Z,100962.63
2022-11-09T02:41:25.432Z,100961.72
2022-11-09T02:43:55.392Z,100934.53
2022-11-09T02:46:35.091Z,100969.66
2022-11-09T02:49:03.986Z,100959.28
2022-11-09T02:51:31.516Z,100967.97
2022-11-09T02:53:59.265Z,100968.88
2022-11-09T02:56:27.392Z,100962.69
2022-11-09T02:58:55.577Z,100949.41
2022-11-09T03:01:23.024Z,100964.38
2022-11-09T03:03:50.401Z,100969.66
2022-11-09T03:06:18.579Z,100952.13
2022-11-09T03:08:46.512Z,100958.47
2022-11-09T03:11:14.721Z,100956.69
2022-11-09T03:13:42.062Z,100951.34
2022-11-09T03:16:09.544Z,100954.81
2022-11-09T03:18:39.577Z,100954.88
2022-11-09T03:21:07.997Z,100954.72
2022-11-09T03:23:35.339Z,100961.09
2022-11-09T03:26:03.963Z,100949.63
2022-11-09T03:28:31.211Z,100951.31
2022-11-09T03:30:58.712Z,100952.19
2022-11-09T03:33:52.145Z,100959.97
2022-11-09T03:36:20.023Z,100959.94
2022-11-09T03:38:47.378Z,100968.72
2022-11-09T03:41:14.855Z,100969.84
2022-11-09T03:43:42.079Z,100966.31
2022-11-09T03:46:09.711Z,100964.69
2022-11-09T03:48:37.070Z,100962.84
2022-11-09T03:51:04.453Z,100983.00
2022-11-09T03:53:31.565Z,100968.09
2022-11-09T03:55:59.251Z,100975.16
2022-11-09T03:58:26.443Z,100982.97
2022-11-09T04:00:53.767Z,100983.81
2022-11-09T04:03:21.090Z,100981.19
2022-11-09T04:05:48.664Z,100981.97
2022-11-09T04:08:16.055Z,100987.19
2022-11-09T04:10:43.349Z,100988.00
2022-11-09T04:13:10.520Z,100993.25
2022-11-09T04:15:37.980Z,100998.53
2022-11-09T04:18:05.145Z,101001.94
2022-11-09T04:20:33.256Z,100986.94
2022-11-09T04:23:03.340Z,101008.94
2022-11-09T04:25:34.102Z,101002.78
2022-11-09T04:28:03.244Z,100993.00
2022-11-09T04:30:32.677Z,101017.59
2022-11-09T04:33:01.097Z,100994.59
2022-11-09T04:35:29.929Z,101019.25
2022-11-09T04:37:59.498Z,101010.41
2022-11-09T04:40:28.771Z,101036.72
2022-11-09T04:42:56.745Z,101035.78
2022-11-09T04:45:23.818Z,101034.00
2022-11-09T04:48:00.643Z,101035.69
2022-11-09T04:50:28.726Z,101027.75
2022-11-09T04:53:12.193Z,101030.47
2022-11-09T04:55:40.987Z,101026.06
2022-11-09T04:58:09.018Z,101025.13
2022-11-09T05:00:37.018Z,101006.59
2022-11-09T05:03:06.822Z,101021.56
2022-11-09T05:05:35.436Z,101041.81
2022-11-09T05:08:03.536Z,101033.81
2022-11-09T05:10:31.309Z,101038.16
2022-11-09T05:13:04.602Z,101037.31
2022-11-09T05:15:32.251Z,101053.03
2022-11-09T05:18:02.201Z,101048.59
2022-11-09T05:20:29.970Z,101058.25
2022-11-09T05:23:19.914Z,101054.78
2022-11-09T05:25:52.348Z,101023.97
2022-11-09T05:28:20.521Z,101046.88
2022-11-09T05:30:47.867Z,101048.66
2022-11-09T05:33:17.674Z,101047.75
2022-11-09T05:35:45.577Z,101047.69
2022-11-09T05:38:13.067Z,101039.81
2022-11-09T05:40:41.967Z,101044.19
2022-11-09T05:43:09.378Z,101051.22
2022-11-09T05:45:42.733Z,101047.72
2022-11-09T05:48:13.073Z,101045.13
2022-11-09T05:50:41.840Z,101048.56
2022-11-09T05:53:20.752Z,101054.69
2022-11-09T05:55:48.261Z,101059.91
2022-11-09T05:58:15.632Z,101063.44
2022-11-09T06:00:43.524Z,101066.06
2022-11-09T06:03:12.113Z,101072.19
2022-11-09T06:05:41.028Z,101044.00
2022-11-09T06:08:11.083Z,101067.00
2022-11-09T06:10:38.404Z,101069.59
2022-11-09T06:13:05.865Z,101065.25
2022-11-09T06:15:33.500Z,101066.94
2022-11-09T06:18:01.355Z,101050.22
2022-11-09T06:20:30.378Z,101075.69
2022-11-09T06:23:03.427Z,101080.16
2022-11-09T06:25:33.980Z,101080.13
2022-11-09T06:28:01.850Z,101086.22
2022-11-09T06:30:29.819Z,101094.16
2022-11-09T06:33:01.714Z,101095.94
2022-11-09T06:35:29.687Z,101085.31
2022-11-09T06:37:58.695Z,101093.28
2022-11-09T06:40:26.567Z,101091.47
2022-11-09T06:42:57.533Z,101087.09
2022-11-09T06:45:25.269Z,101095.03
2022-11-09T06:47:55.828Z,101100.38
2022-11-09T06:50:22.940Z,101098.59
2022-11-09T06:52:50.234Z,101099.41
2022-11-09T06:55:17.430Z,101095.91
2022-11-09T06:57:44.778Z,101095.94
2022-11-09T07:00:12.549Z,101102.03
2022-11-09T07:02:40.049Z,101116.94
2022-11-09T07:05:07.698Z,101104.66
2022-11-09T07:07:35.151Z,101096.69
2022-11-09T07:10:02.339Z,101112.47
2022-11-09T07:12:30.014Z,101118.53
2022-11-09T07:14:57.368Z,101128.19
2022-11-09T07:17:25.389Z,101134.34
2022-11-09T07:19:52.449Z,101125.56
2022-11-09T07:22:22.612Z,101125.56
2022-11-09T07:24:49.874Z,101138.69
2022-11-09T07:27:16.990Z,101154.50
2022-11-09T07:29:44.195Z,101155.34
2022-11-09T07:32:11.335Z,101146.50
2022-11-09T07:34:38.813Z,101153.59
2022-11-09T07:37:05.868Z,101159.75
2022-11-09T07:39:33.142Z,101174.72
2022-11-09T07:42:00.604Z,101165.13
2022-11-09T07:44:28.094Z,101172.94
2022-11-09T07:46:55.449Z,101160.56
2022-11-09T07:49:22.883Z,101166.81
2022-11-09T07:51:50.273Z,101173.03
2022-11-09T07:54:17.622Z,101184.47
2022-11-09T07:56:44.776Z,101199.34
2022-11-09T07:59:12.492Z,101185.31
2022-11-09T08:01:39.670Z,101195.03
2022-11-09T08:04:07.061Z,101197.69
2022-11-09T08:06:34.445Z,101203.81
2022-11-09T08:09:01.803Z,101209.06
2022-11-09T08:11:29.526Z,101199.38
2022-11-09T08:13:57.579Z,101219.53
2022-11-09T08:16:25.315Z,101230.19
2022-11-09T08:18:52.670Z,101231.03
2022-11-09T08:21:20.129Z,101235.59
2022-11-09T08:23:47.424Z,101239.16
2022-11-09T08:26:14.546Z,101233.88
2022-11-09T08:28:41.811Z,101247.91
2022-11-09T08:31:09.151Z,101250.56
2022-11-09T08:33:39.084Z,101259.47
2022-11-09T08:36:14.494Z,101249.78
2022-11-09T08:38:43.244Z,101262.06
2022-11-09T08:41:13.608Z,101247.06
2022-11-09T08:43:41.253Z,101277.06
2022-11-09T08:46:08.362Z,101279.81
2022-11-09T08:48:35.931Z,101278.09
2022-11-09T08:51:03.136Z,101279.09
2022-11-09T08:53:30.892Z,101282.69
2022-11-09T08:55:58.578Z,101279.19
2022-11-09T08:58:26.050Z,101266.94
2022-11-09T09:00:53.411Z,101290.72
2022-11-09T09:03:20.589Z,101297.81
2022-11-09T09:05:47.776Z,101287.28
2022-11-09T09:08:15.902Z,101288.25
2022-11-09T09:10:43.589Z,101289.94
2022-11-09T09:13:10.938Z,101295.25
2022-11-09T09:15:38.117Z,101297.09
2022-11-09T09:18:06.154Z,101302.38
2022-11-09T09:20:33.690Z,101304.13
2022-11-09T09:23:01.891Z,101321.69
2022-11-09T09:25:34.454Z,101311.16
2022-11-09T09:28:01.613Z,101319.94
2022-11-09T09:30:30.060Z,101326.97
2022-11-09T09:33:01.572Z,101334.88
2022-11-09T09:35:29.749Z,101330.66
2022-11-09T09:37:58.542Z,101335.03
2022-11-09T09:40:59.557Z,101342.13
2022-11-09T09:43:48.243Z,101346.59
2022-11-09T09:46:18.335Z,101352.72
2022-11-09T09:48:54.302Z,101357.13
2022-11-09T09:51:32.225Z,101349.25
2022-11-09T09:54:29.236Z,101357.34
2022-11-09T09:57:02.120Z,101358.28
2022-11-09T09:59:43.281Z,101367.09
2022-11-09T10:02:19.428Z,101353.81
2022-11-09T10:04:47.235Z,101367.97
2022-11-09T10:07:14.435Z,101342.34
2022-11-09T10:10:00.674Z,101373.19
2022-11-09T10:12:39.892Z,101381.97
2022-11-09T10:15:34.830Z,101380.25
2022-11-09T10:18:20.859Z,101389.91
2022-11-09T10:21:13.212Z,101403.13
2022-11-09T10:24:09.359Z,101396.09
2022-11-09T10:26:55.359Z,101398.72
2022-11-09T10:29:29.114Z,101402.22
2022-11-09T10:32:02.108Z,101392.53
2022-11-09T10:34:56.139Z,101412.75
2022-11-09T10:37:39.565Z,101390.72
2022-11-09T10:40:10.042Z,101429.50
2022-11-09T10:43:01.655Z,101422.41
2022-11-09T10:45:59.402Z,101425.13
2022-11-09T10:48:45.269Z,101434.72
2022-11-09T10:51:39.678Z,101434.78
2022-11-09T10:54:28.505Z,101425.94
2022-11-09T10:57:22.076Z,101419.81
2022-11-09T11:00:15.152Z,101449.88
2022-11-09T11:03:11.633Z,101445.56
2022-11-09T11:06:23.645Z,101440.31
2022-11-09T11:09:09.569Z,101438.63
2022-11-09T11:12:17.096Z,101422.00
2022-11-09T11:15:02.952Z,101426.50
2022-11-09T11:17:49.088Z,101431.84
2022-11-09T11:20:37.599Z,101413.31
2022-11-09T11:23:26.405Z,101416.94
2022-11-09T11:26:32.438Z,101441.69
2022-11-09T11:29:40.562Z,101403.91
2022-11-09T11:32:26.505Z,101403.91
2022-11-09T11:35:51.210Z,101418.06
2022-11-09T11:38:52.072Z,101383.69
2022-11-09T11:42:00.866Z,101415.38
2022-11-09T11:45:12.739Z,101424.19
2022-11-09T11:48:32.003Z,101408.38
2022-11-09T11:52:02.506Z,101419.91
2022-11-09T11:55:13.497Z,101421.66
2022-11-09T11:58:15.870Z,101415.53
2022-11-09T12:01:07.682Z,101416.41
2022-11-09T12:03:53.220Z,101432.28
2022-11-09T12:06:54.323Z,101425.25
2022-11-09T12:09:58.290Z,101422.56
2022-11-09T12:12:53.240Z,101411.03
2022-11-09T12:16:27.041Z,101438.41
2022-11-09T12:19:36.002Z,101426.94
2022-11-09T12:22:55.241Z,101439.31
2022-11-09T12:25:48.617Z,101412.81
2022-11-09T12:29:01.947Z,101443.66
2022-11-09T12:32:12.739Z,101440.13
2022-11-09T12:35:16.951Z,101437.53
2022-11-09T12:38:02.059Z,101449.88
2022-11-09T12:41:08.481Z,101397.97
2022-11-09T12:43:58.908Z,101450.03
2022-11-09T12:47:03.285Z,101454.41
2022-11-09T12:49:48.725Z,101459.72
2022-11-09T12:52:34.550Z,101463.25
2022-11-09T12:55:34.348Z,101459.78
2022-11-09T12:58:32.602Z,101452.78
2022-11-09T13:01:27.341Z,101423.75
2022-11-09T13:04:19.342Z,101463.44
2022-11-09T13:07:14.445Z,101434.34
2022-11-09T13:10:02.557Z,101465.25
2022-11-09T13:12:48.706Z,101473.16
2022-11-09T13:15:35.703Z,101474.97
2022-11-09T13:18:51.492Z,101477.56
2022-11-09T13:21:39.095Z,101473.25
2022-11-09T13:25:01.345Z,101470.63
2022-11-09T13:27:49.146Z,101443.28
2022-11-09T13:30:43.193Z,101445.94
2022-11-09T13:33:29.626Z,101471.50
2022-11-09T13:36:18.019Z,101476.78
2022-11-09T13:39:30.084Z,101478.56
2022-11-09T13:42:34.073Z,101463.59
2022-11-09T13:45:25.620Z,101482.97
2022-11-09T13:48:23.992Z,101488.28
2022-11-09T13:51:35.958Z,101490.09
2022-11-09T13:54:29.168Z,101461.84
2022-11-09T13:57:16.830Z,101483.00
2022-11-09T14:00:05.939Z,101479.50
2022-11-09T14:03:03.102Z,101492.69
2022-11-09T14:05:54.323Z,101498.84
2022-11-09T14:08:43.519Z,101495.31
2022-11-09T14:11:47.893Z,101501.44
2022-11-09T14:14:55.883Z,101499.75
2022-11-09T14:18:23.925Z,101497.09
2022-11-09T14:21:28.118Z,101502.31
2022-11-09T14:24:18.873Z,101512.94
2022-11-09T14:27:11.117Z,101475.00
2022-11-09T14:29:59.492Z,101504.97
2022-11-09T14:32:55.047Z,101516.47
2022-11-09T14:35:40.891Z,101510.31
2022-11-09T14:38:36.494Z,101489.06
2022-11-09T14:41:25.906Z,101499.63
2022-11-09T14:44:36.038Z,101520.78
2022-11-09T14:47:34.262Z,101532.16
2022-11-09T14:50:24.558Z,101524.22
2022-11-09T14:53:27.052Z,101520.69
2022-11-09T14:56:16.463Z,101518.84
2022-11-09T14:59:06.460Z,101523.19
2022-11-09T15:02:05.022Z,101546.84
2022-11-09T15:04:59.779Z,101551.25
2022-11-09T15:07:48.472Z,101548.50
2022-11-09T15:10:35.550Z,101552.84
2022-11-09T15:13:30.005Z,101559.03
2022-11-09T15:16:29.358Z,101558.16
2022-11-09T15:19:59.054Z,101566.19
2022-11-09T15:22:51.964Z,101551.13
2022-11-09T15:25:55.972Z,101530.69
2022-11-09T15:28:47.959Z,101571.22
2022-11-09T15:31:33.815Z,101572.97
2022-11-09T15:34:24.266Z,101565.03
2022-11-09T15:37:31.996Z,101564.06
2022-11-09T15:40:27.755Z,101582.63
2022-11-09T15:43:13.688Z,101590.44
2022-11-09T15:46:01.624Z,101599.16
2022-11-09T15:48:48.006Z,101603.50
2022-11-09T15:51:33.623Z,101621.94
2022-11-09T15:54:20.976Z,101623.63
2022-11-09T15:57:15.026Z,101620.09
2022-11-09T16:00:06.627Z,101620.84
2022-11-09T16:02:57.380Z,101624.34
2022-11-09T16:05:43.517Z,101618.97
2022-11-09T16:08:29.171Z,101616.31
2022-11-09T16:11:16.579Z,101609.09
2022-11-09T16:14:05.876Z,101594.00
2022-11-09T16:16:51.924Z,101606.19
2022-11-09T16:19:37.383Z,101614.88
2022-11-09T16:22:23.278Z,101618.31
2022-11-09T16:25:10.066Z,101618.13
2022-11-09T16:27:55.929Z,101611.75
2022-11-09T16:30:46.715Z,101622.09
2022-11-09T16:33:34.208Z,101637.63
2022-11-09T16:36:23.914Z,101637.50
2022-11-09T16:39:14.176Z,101630.31
2022-11-09T16:42:02.563Z,101650.41
2022-11-09T16:44:50.054Z,101648.41
2022-11-09T16:47:44.310Z,101648.28
2022-11-09T16:50:31.153Z,101650.91
2022-11-09T16:53:16.791Z,101652.59
2022-11-09T16:56:02.920Z,101668.34
2022-11-09T16:58:49.204Z,101669.16
2022-11-09T17:01:34.891Z,101634.78
2022-11-09T17:04:21.939Z,101677.97
2022-11-09T17:07:10.510Z,101682.28
2022-11-09T17:09:56.932Z,101683.03
2022-11-09T17:12:43.478Z,101685.63
2022-11-09T17:15:30.475Z,101692.41
2022-11-09T17:18:16.505Z,101701.91
2022-11-09T17:21:02.177Z,101702.53
2022-11-09T17:23:48.468Z,101684.59
2022-11-09T17:26:34.493Z,101703.81
2022-11-09T17:29:22.306Z,101705.38
2022-11-09T17:32:09.765Z,101695.22
2022-11-09T17:34:55.565Z,101722.53
2022-11-09T17:37:42.575Z,101729.38
2022-11-09T17:40:28.488Z,101732.66
2022-11-09T17:43:14.916Z,101732.56
2022-11-09T17:46:09.078Z,101732.16
2022-11-09T17:48:55.225Z,101735.44
2022-11-09T17:51:41.258Z,101746.53
2022-11-09T17:54:35.511Z,101750.84
2022-11-09T17:57:23.236Z,101752.38
2022-11-09T18:00:11.162Z,101757.38
2022-11-09T18:02:57.338Z,101771.22
2022-11-09T18:05:45.029Z,101767.56
2022-11-09T18:08:30.891Z,101776.25
2022-11-09T18:11:19.632Z,101781.56
2022-11-09T18:14:05.124Z,101777.84
2022-11-09T18:16:51.551Z,101782.91
2022-11-09T18:19:36.875Z,101800.44
2022-11-09T18:22:22.444Z,101804.09
2022-11-09T18:25:08.207Z,101810.88
2022-11-09T18:27:56.280Z,101803.84
2022-11-09T18:30:42.145Z,101797.50
2022-11-09T18:33:28.129Z,101803.53
2022-11-09T18:36:16.289Z,101800.72
2022-11-09T18:39:04.005Z,101810.28
2022-11-09T18:41:49.795Z,101816.19
2022-11-09T18:44:35.764Z,101812.28
2022-11-09T18:47:21.954Z,101817.56
2022-11-09T18:50:08.074Z,101807.69
2022-11-09T18:53:06.536Z,101811.00
2022-11-09T18:55:53.076Z,101811.72
2022-11-09T18:58:38.905Z,101822.97
2022-11-09T19:01:27.590Z,101827.06
2022-11-09T19:04:15.520Z,101829.41
2022-11-09T19:07:02.027Z,101833.41
2022-11-09T19:09:51.611Z,101842.22
2022-11-09T19:12:40.008Z,101838.34
2022-11-09T19:15:25.588Z,101839.13
2022-11-09T19:18:11.615Z,101838.03
2022-11-09T19:20:57.576Z,101838.78
2022-11-09T19:23:44.882Z,101832.47
2022-11-09T19:26:31.223Z,101841.97
2022-11-09T19:29:17.669Z,101847.97
2022-11-09T19:32:04.147Z,101858.13
2022-11-09T19:34:50.258Z,101860.78
2022-11-09T19:37:48.873Z,101866.75
2022-11-09T19:40:39.856Z,101865.63
2022-11-09T19:43:27.422Z,101856.47
2022-11-09T19:46:13.137Z,101858.19
2022-11-09T19:49:00.466Z,101837.66
2022-11-09T19:51:46.499Z,101858.72
2022-11-09T19:54:32.351Z,101874.41
2022-11-09T19:57:18.632Z,101883.84
2022-11-09T20:00:07.554Z,101884.50
2022-11-09T20:02:56.639Z,101879.91
2022-11-09T20:05:43.064Z,101887.56
2022-11-09T20:08:30.087Z,101890.72
2022-11-09T20:11:36.820Z,101873.69
2022-11-09T20:14:24.070Z,101897.25
2022-11-09T20:17:10.786Z,101908.69
2022-11-09T20:19:58.299Z,101903.03
2022-11-09T20:22:44.064Z,101912.56
2022-11-09T20:25:30.132Z,101919.25
2022-11-09T20:28:19.607Z,101926.91
2022-11-09T20:31:13.454Z,101938.19
2022-11-09T20:34:01.425Z,101933.44
2022-11-09T20:36:47.943Z,101936.72
2022-11-09T20:39:36.105Z,101935.84
2022-11-09T20:42:21.972Z,101948.06
2022-11-09T20:45:08.401Z,101935.59
2022-11-09T20:48:24.818Z,101941.56
2022-11-09T20:51:08.979Z,101942.19
2022-11-09T20:53:55.013Z,101941.25
2022-11-09T20:56:40.850Z,101949.84
2022-11-09T20:59:26.698Z,101945.31
2022-11-09T21:02:15.788Z,101948.97
2022-11-09T21:05:02.579Z,101963.28
2022-11-09T21:07:48.431Z,101972.97
2022-11-09T21:10:34.188Z,101965.59
2022-11-09T21:13:22.733Z,101971.78
2022-11-09T21:16:14.367Z,101961.84
2022-11-09T21:19:00.192Z,101982.13
2022-11-09T21:21:46.267Z,101980.28
2022-11-09T21:24:51.177Z,101987.09
2022-11-09T21:27:56.500Z,101984.16
2022-11-09T21:30:45.979Z,102001.00
2022-11-09T21:33:34.368Z,101999.75
2022-11-09T21:36:21.206Z,101992.56
2022-11-09T21:39:07.325Z,102004.75
2022-11-09T21:41:54.127Z,102004.47
2022-11-09T21:44:40.414Z,101980.22
2022-11-09T21:47:27.193Z,101996.47
2022-11-09T21:50:14.683Z,102001.69
2022-11-09T21:53:00.684Z,102005.09
2022-11-09T21:55:46.568Z,102010.38
2022-11-09T21:58:32.731Z,102017.91
2022-11-09T22:01:18.772Z,102005.28
2022-11-09T22:04:04.782Z,102007.97
2022-11-09T22:06:53.031Z,102010.41
2022-11-09T22:10:08.159Z,102014.38
2022-11-09T22:13:06.607Z,102014.38
2022-11-09T22:16:07.772Z,102008.81
2022-11-09T22:19:12.185Z,102021.91
2022-11-09T22:21:58.360Z,102002.56
2022-11-09T22:24:45.177Z,102010.38
2022-11-09T22:27:32.315Z,102010.28
2022-11-09T22:30:18.357Z,102018.09
2022-11-09T22:33:04.270Z,102014.53
2022-11-09T22:35:57.575Z,102007.34
2022-11-09T22:38:43.766Z,102026.53
2022-11-09T22:41:30.069Z,102035.38
2022-11-09T22:44:16.200Z,102015.75
2022-11-09T22:47:02.341Z,102030.16
2022-11-09T22:49:48.441Z,102031.75
2022-11-09T22:52:34.014Z,102028.19
2022-11-09T22:55:20.429Z,102030.03
2022-11-09T22:58:06.441Z,102022.81
2022-11-09T23:00:52.964Z,102003.41
2022-11-09T23:03:43.081Z,102026.66
2022-11-09T23:06:29.447Z,102031.13
2022-11-09T23:09:17.028Z,102029.34
2022-11-09T23:12:02.903Z,102032.25
2022-11-09T23:15:06.445Z,102022.50
2022-11-09T23:18:15.650Z,102027.63
2022-11-09T23:21:01.493Z,102031.59
2022-11-09T23:23:47.440Z,102007.88
2022-11-09T23:26:34.407Z,102032.84
2022-11-09T23:29:20.357Z,102039.56
2022-11-09T23:32:06.358Z,102044.88
2022-11-09T23:34:52.515Z,102038.66
2022-11-09T23:37:38.596Z,102040.16
2022-11-09T23:40:24.803Z,102047.88
2022-11-09T23:43:12.508Z,102053.16
2022-11-09T23:46:03.468Z,102045.88
2022-11-09T23:48:48.907Z,102052.00
2022-11-09T23:51:34.384Z,102051.75
2022-11-09T23:54:20.066Z,102056.00
2022-11-09T23:57:06.406Z,102052.38
2022-11-09T23:59:52.309Z,102054.97
